sensor_id;sensor_type;location;lat;lon;timestamp;pressure;altitude;pressure_sealevel;temperature;humidity
33422;BME280;19763;55.798;37.782;2023-01-28T00:00:29;147342.41;;;0.06;86.25
33422;BME280;19763;55.798;37.782;2023-01-28T00:02:54;147330.97;;;0.01;85.06
33422;BME280;19763;55.798;37.782;2023-01-28T00:05:20;147313.16;;;-0.06;85.53
33422;BME280;19763;55.798;37.782;2023-01-28T00:07:48;147353.88;;;0.10;85.43
33422;BME280;19763;55.798;37.782;2023-01-28T00:10:14;147343.69;;;0.06;85.35
33422;BME280;19763;55.798;37.782;2023-01-28T00:12:40;147339.88;;;0.05;85.48
33422;BME280;19763;55.798;37.782;2023-01-28T00:15:07;147352.56;;;0.10;84.68
33422;BME280;19763;55.798;37.782;2023-01-28T00:17:33;147332.28;;;0.02;84.98
33422;BME280;19763;55.798;37.782;2023-01-28T00:19:58;147351.31;;;0.09;84.78
33422;BME280;19763;55.798;37.782;2023-01-28T00:22:24;147355.13;;;0.11;84.38
33422;BME280;19763;55.798;37.782;2023-01-28T00:24:49;147342.41;;;0.06;84.00
33422;BME280;19763;55.798;37.782;2023-01-28T00:27:15;147328.47;;;0.00;83.82
33422;BME280;19763;55.798;37.782;2023-01-28T00:29:40;147344.97;;;0.07;83.30
33422;BME280;19763;55.798;37.782;2023-01-28T00:32:06;147358.94;;;0.12;83.61
33422;BME280;19763;55.798;37.782;2023-01-28T00:34:31;147328.47;;;0.00;84.24
33422;BME280;19763;55.798;37.782;2023-01-28T00:36:57;147356.38;;;0.11;83.81
33422;BME280;19763;55.798;37.782;2023-01-28T00:39:23;147292.81;;;-0.14;82.74
33422;BME280;19763;55.798;37.782;2023-01-28T00:41:52;147327.16;;;-0.01;83.06
33422;BME280;19763;55.798;37.782;2023-01-28T00:44:19;147296.63;;;-0.13;83.35
33422;BME280;19763;55.798;37.782;2023-01-28T00:46:45;147291.56;;;-0.15;84.23
33422;BME280;19763;55.798;37.782;2023-01-28T00:49:11;147292.81;;;-0.14;83.57
33422;BME280;19763;55.798;37.782;2023-01-28T00:51:36;147301.75;;;-0.11;82.90
33422;BME280;19763;55.798;37.782;2023-01-28T00:54:02;147310.63;;;-0.07;83.62
33422;BME280;19763;55.798;37.782;2023-01-28T00:56:28;147304.31;;;-0.10;82.97
33422;BME280;19763;55.798;37.782;2023-01-28T00:58:54;147287.75;;;-0.16;83.15
33422;BME280;19763;55.798;37.782;2023-01-28T01:01:25;147306.81;;;-0.09;82.48
33422;BME280;19763;55.798;37.782;2023-01-28T01:03:52;147318.28;;;-0.04;83.58
33422;BME280;19763;55.798;37.782;2023-01-28T01:06:33;147308.09;;;-0.08;83.35
33422;BME280;19763;55.798;37.782;2023-01-28T01:09:00;147282.66;;;-0.19;83.15
33422;BME280;19763;55.798;37.782;2023-01-28T01:11:26;147305.56;;;-0.09;83.11
33422;BME280;19763;55.798;37.782;2023-01-28T01:13:53;147306.81;;;-0.09;82.73
33422;BME280;19763;55.798;37.782;2023-01-28T01:16:23;147325.91;;;-0.01;83.22
33422;BME280;19763;55.798;37.782;2023-01-28T01:18:50;147319.53;;;-0.04;82.27
33422;BME280;19763;55.798;37.782;2023-01-28T01:21:19;147332.28;;;0.02;82.57
33422;BME280;19763;55.798;37.782;2023-01-28T01:23:45;147333.53;;;0.02;82.72
33422;BME280;19763;55.798;37.782;2023-01-28T01:26:11;147304.31;;;-0.10;82.41
33422;BME280;19763;55.798;37.782;2023-01-28T01:28:37;147329.72;;;0.01;82.58
33422;BME280;19763;55.798;37.782;2023-01-28T01:31:09;147330.97;;;0.01;83.17
33422;BME280;19763;55.798;37.782;2023-01-28T01:33:35;147330.97;;;0.01;82.21
33422;BME280;19763;55.798;37.782;2023-01-28T01:36:01;147322.09;;;-0.03;82.55
33422;BME280;19763;55.798;37.782;2023-01-28T01:38:27;147327.16;;;-0.01;82.51
33422;BME280;19763;55.798;37.782;2023-01-28T01:40:57;147348.75;;;0.08;82.52
33422;BME280;19763;55.798;37.782;2023-01-28T01:43:24;147338.59;;;0.04;82.60
33422;BME280;19763;55.798;37.782;2023-01-28T01:45:57;147330.97;;;0.01;82.05
33422;BME280;19763;55.798;37.782;2023-01-28T01:48:30;147320.78;;;-0.03;82.33
33422;BME280;19763;55.798;37.782;2023-01-28T01:51:01;147322.09;;;-0.03;82.20
33422;BME280;19763;55.798;37.782;2023-01-28T01:53:29;147289.00;;;-0.16;82.40
33422;BME280;19763;55.798;37.782;2023-01-28T01:55:59;147308.09;;;-0.08;82.87
33422;BME280;19763;55.798;37.782;2023-01-28T01:58:30;147299.19;;;-0.12;82.98
33422;BME280;19763;55.798;37.782;2023-01-28T02:00:58;147292.81;;;-0.14;82.45
33422;BME280;19763;55.798;37.782;2023-01-28T02:03:58;147259.78;;;-0.28;83.57
33422;BME280;19763;55.798;37.782;2023-01-28T02:06:26;147230.56;;;-0.40;83.02
33422;BME280;19763;55.798;37.782;2023-01-28T02:08:54;147252.19;;;-0.31;83.93
33422;BME280;19763;55.798;37.782;2023-01-28T02:11:20;147268.72;;;-0.24;84.08
33422;BME280;19763;55.798;37.782;2023-01-28T02:13:49;147234.38;;;-0.38;82.96
33422;BME280;19763;55.798;37.782;2023-01-28T02:16:16;147266.16;;;-0.25;83.71
33422;BME280;19763;55.798;37.782;2023-01-28T02:18:42;147287.75;;;-0.16;83.22
33422;BME280;19763;55.798;37.782;2023-01-28T02:29:39;147267.41;;;-0.25;82.90
33422;BME280;19763;55.798;37.782;2023-01-28T02:32:09;147239.44;;;-0.36;83.07
33422;BME280;19763;55.798;37.782;2023-01-28T02:34:55;147236.88;;;-0.37;83.14
33422;BME280;19763;55.798;37.782;2023-01-28T02:37:33;147280.13;;;-0.20;82.81
33422;BME280;19763;55.798;37.782;2023-01-28T02:40:10;147236.88;;;-0.37;83.18
33422;BME280;19763;55.798;37.782;2023-01-28T02:42:39;147268.72;;;-0.24;83.30
33422;BME280;19763;55.798;37.782;2023-01-28T02:45:19;147278.84;;;-0.20;83.98
33422;BME280;19763;55.798;37.782;2023-01-28T02:47:45;147289.00;;;-0.16;83.28
33422;BME280;19763;55.798;37.782;2023-01-28T02:50:26;147247.06;;;-0.33;82.48
33422;BME280;19763;55.798;37.782;2023-01-28T02:53:25;147275.03;;;-0.22;83.05
33422;BME280;19763;55.798;37.782;2023-01-28T02:58:46;147253.44;;;-0.30;83.29
33422;BME280;19763;55.798;37.782;2023-01-28T03:03:45;147243.25;;;-0.35;83.27
33422;BME280;19763;55.798;37.782;2023-01-28T03:06:20;147243.25;;;-0.35;82.65
33422;BME280;19763;55.798;37.782;2023-01-28T03:08:52;147250.88;;;-0.31;82.53
33422;BME280;19763;55.798;37.782;2023-01-28T03:11:42;147243.25;;;-0.35;82.22
33422;BME280;19763;55.798;37.782;2023-01-28T03:14:30;147184.81;;;-0.58;81.55
33422;BME280;19763;55.798;37.782;2023-01-28T03:17:18;147120.00;;;-0.84;81.72
33422;BME280;19763;55.798;37.782;2023-01-28T03:20:04;147154.31;;;-0.71;81.68
33422;BME280;19763;55.798;37.782;2023-01-28T03:22:51;147198.81;;;-0.53;82.82
33422;BME280;19763;55.798;37.782;2023-01-28T03:25:37;147198.81;;;-0.53;81.84
33422;BME280;19763;55.798;37.782;2023-01-28T03:28:24;147231.81;;;-0.39;81.16
33422;BME280;19763;55.798;37.782;2023-01-28T03:31:12;147235.63;;;-0.38;81.28
33422;BME280;19763;55.798;37.782;2023-01-28T03:33:58;147203.88;;;-0.50;80.67
33422;BME280;19763;55.798;37.782;2023-01-28T03:36:45;147188.63;;;-0.57;80.14
33422;BME280;19763;55.798;37.782;2023-01-28T03:39:25;147182.28;;;-0.59;79.74
33422;BME280;19763;55.798;37.782;2023-01-28T03:42:02;147153.06;;;-0.71;79.90
33422;BME280;19763;55.798;37.782;2023-01-28T03:44:29;147178.47;;;-0.61;80.22
33422;BME280;19763;55.798;37.782;2023-01-28T03:47:13;147186.09;;;-0.58;79.98
33422;BME280;19763;55.798;37.782;2023-01-28T03:49:41;147150.50;;;-0.72;79.56
33422;BME280;19763;55.798;37.782;2023-01-28T03:52:07;147095.84;;;-0.94;78.93
33422;BME280;19763;55.798;37.782;2023-01-28T03:54:33;147107.31;;;-0.90;79.36
33422;BME280;19763;55.798;37.782;2023-01-28T03:56:59;147084.44;;;-0.99;79.32
33422;BME280;19763;55.798;37.782;2023-01-28T03:59:24;147097.16;;;-0.94;79.45
33422;BME280;19763;55.798;37.782;2023-01-28T04:01:50;147009.53;;;-1.29;80.54
33422;BME280;19763;55.798;37.782;2023-01-28T04:04:16;147071.75;;;-1.04;79.51
33422;BME280;19763;55.798;37.782;2023-01-28T04:06:53;147022.19;;;-1.24;80.29
33422;BME280;19763;55.798;37.782;2023-01-28T04:09:22;147097.16;;;-0.94;80.09
33422;BME280;19763;55.798;37.782;2023-01-28T04:11:48;147116.19;;;-0.86;79.89
33422;BME280;19763;55.798;37.782;2023-01-28T04:14:16;147041.28;;;-1.16;80.40
33422;BME280;19763;55.798;37.782;2023-01-28T04:16:41;147034.91;;;-1.19;80.48
33422;BME280;19763;55.798;37.782;2023-01-28T04:19:08;146976.47;;;-1.43;81.51
33422;BME280;19763;55.798;37.782;2023-01-28T04:21:34;147034.91;;;-1.19;81.15
33422;BME280;19763;55.798;37.782;2023-01-28T04:23:59;147008.22;;;-1.30;81.16
33422;BME280;19763;55.798;37.782;2023-01-28T04:26:26;147043.81;;;-1.15;80.56
33422;BME280;19763;55.798;37.782;2023-01-28T04:28:52;146998.09;;;-1.34;80.89
33422;BME280;19763;55.798;37.782;2023-01-28T04:31:18;147018.38;;;-1.26;80.59
33422;BME280;19763;55.798;37.782;2023-01-28T04:33:43;147047.63;;;-1.14;80.41
33422;BME280;19763;55.798;37.782;2023-01-28T04:36:09;147075.56;;;-1.02;79.85
33422;BME280;19763;55.798;37.782;2023-01-28T04:38:34;147046.31;;;-1.14;79.16
33422;BME280;19763;55.798;37.782;2023-01-28T04:41:00;147076.81;;;-1.02;79.86
33422;BME280;19763;55.798;37.782;2023-01-28T04:43:25;147083.19;;;-0.99;79.47
33422;BME280;19763;55.798;37.782;2023-01-28T04:45:51;147050.13;;;-1.13;79.70
33422;BME280;19763;55.798;37.782;2023-01-28T04:48:16;147014.56;;;-1.27;79.11
33422;BME280;19763;55.798;37.782;2023-01-28T04:50:43;147031.09;;;-1.20;79.76
33422;BME280;19763;55.798;37.782;2023-01-28T04:53:10;146975.22;;;-1.43;80.38
33422;BME280;19763;55.798;37.782;2023-01-28T04:55:36;146934.56;;;-1.60;80.66
33422;BME280;19763;55.798;37.782;2023-01-28T04:58:02;146993.00;;;-1.36;79.70
33422;BME280;19763;55.798;37.782;2023-01-28T05:00:28;147003.16;;;-1.32;79.80
33422;BME280;19763;55.798;37.782;2023-01-28T05:02:53;147008.22;;;-1.30;79.55
33422;BME280;19763;55.798;37.782;2023-01-28T05:05:19;147014.56;;;-1.27;79.72
33422;BME280;19763;55.798;37.782;2023-01-28T05:07:55;147005.72;;;-1.31;80.46
33422;BME280;19763;55.798;37.782;2023-01-28T05:10:22;146951.09;;;-1.53;80.30
33422;BME280;19763;55.798;37.782;2023-01-28T05:12:48;146975.22;;;-1.43;80.92
33422;BME280;19763;55.798;37.782;2023-01-28T05:15:15;146972.66;;;-1.44;79.93
33422;BME280;19763;55.798;37.782;2023-01-28T05:17:41;146968.88;;;-1.46;80.34
33422;BME280;19763;55.798;37.782;2023-01-28T05:20:09;146944.72;;;-1.56;80.53
33422;BME280;19763;55.798;37.782;2023-01-28T05:22:34;146979.03;;;-1.42;80.92
33422;BME280;19763;55.798;37.782;2023-01-28T05:25:00;146996.81;;;-1.34;80.65
33422;BME280;19763;55.798;37.782;2023-01-28T05:27:29;147018.38;;;-1.26;79.87
33422;BME280;19763;55.798;37.782;2023-01-28T05:29:55;147045.06;;;-1.15;80.24
33422;BME280;19763;55.798;37.782;2023-01-28T05:32:20;147036.16;;;-1.18;80.03
33422;BME280;19763;55.798;37.782;2023-01-28T05:34:46;146977.78;;;-1.42;79.88
33422;BME280;19763;55.798;37.782;2023-01-28T05:37:11;147026.03;;;-1.23;79.79
33422;BME280;19763;55.798;37.782;2023-01-28T05:39:37;146925.72;;;-1.63;80.67
33422;BME280;19763;55.798;37.782;2023-01-28T05:42:02;146906.69;;;-1.71;79.64
33422;BME280;19763;55.798;37.782;2023-01-28T05:44:28;146904.13;;;-1.72;80.09
33422;BME280;19763;55.798;37.782;2023-01-28T05:46:54;146880.00;;;-1.82;80.06
33422;BME280;19763;55.798;37.782;2023-01-28T05:49:19;146881.25;;;-1.81;80.49
33422;BME280;19763;55.798;37.782;2023-01-28T05:51:45;146896.53;;;-1.75;79.39
33422;BME280;19763;55.798;37.782;2023-01-28T05:54:12;146893.97;;;-1.76;78.91
33422;BME280;19763;55.798;37.782;2023-01-28T05:56:38;146883.81;;;-1.80;79.40
33422;BME280;19763;55.798;37.782;2023-01-28T05:59:04;146886.38;;;-1.79;79.57
33422;BME280;19763;55.798;37.782;2023-01-28T06:01:30;146854.63;;;-1.92;78.69
33422;BME280;19763;55.798;37.782;2023-01-28T06:03:55;146853.34;;;-1.93;79.58
33422;BME280;19763;55.798;37.782;2023-01-28T06:06:21;146826.72;;;-2.03;78.38
33422;BME280;19763;55.798;37.782;2023-01-28T06:08:47;146791.19;;;-2.18;79.05
33422;BME280;19763;55.798;37.782;2023-01-28T06:11:12;146836.88;;;-1.99;79.87
33422;BME280;19763;55.798;37.782;2023-01-28T06:13:38;146843.19;;;-1.97;79.09
33422;BME280;19763;55.798;37.782;2023-01-28T06:16:06;146838.13;;;-1.99;79.13
33422;BME280;19763;55.798;37.782;2023-01-28T06:18:32;146817.81;;;-2.07;78.54
33422;BME280;19763;55.798;37.782;2023-01-28T06:20:58;146769.63;;;-2.27;78.95
33422;BME280;19763;55.798;37.782;2023-01-28T06:23:23;146734.06;;;-2.41;79.17
33422;BME280;19763;55.798;37.782;2023-01-28T06:25:53;146767.06;;;-2.28;78.98
33422;BME280;19763;55.798;37.782;2023-01-28T06:28:19;146777.22;;;-2.23;78.03
33422;BME280;19763;55.798;37.782;2023-01-28T06:30:50;146761.97;;;-2.30;77.85
33422;BME280;19763;55.798;37.782;2023-01-28T06:33:17;146778.47;;;-2.23;77.77
33422;BME280;19763;55.798;37.782;2023-01-28T06:35:43;146814.00;;;-2.09;77.88
33422;BME280;19763;55.798;37.782;2023-01-28T06:38:09;146826.72;;;-2.03;77.52
33422;BME280;19763;55.798;37.782;2023-01-28T06:40:35;146788.63;;;-2.19;78.04
33422;BME280;19763;55.798;37.782;2023-01-28T06:43:01;146774.69;;;-2.24;77.72
33422;BME280;19763;55.798;37.782;2023-01-28T06:45:27;146787.38;;;-2.19;78.46
33422;BME280;19763;55.798;37.782;2023-01-28T06:47:52;146731.56;;;-2.42;78.10
33422;BME280;19763;55.798;37.782;2023-01-28T06:50:18;146778.47;;;-2.23;78.70
33422;BME280;19763;55.798;37.782;2023-01-28T06:52:44;146792.44;;;-2.17;78.86
33422;BME280;19763;55.798;37.782;2023-01-28T06:55:09;146769.63;;;-2.27;78.63
33422;BME280;19763;55.798;37.782;2023-01-28T06:57:39;146764.53;;;-2.29;78.38
33422;BME280;19763;55.798;37.782;2023-01-28T07:00:09;146769.63;;;-2.27;78.32
33422;BME280;19763;55.798;37.782;2023-01-28T07:02:36;146741.72;;;-2.38;78.68
33422;BME280;19763;55.798;37.782;2023-01-28T07:05:03;146782.28;;;-2.21;78.92
33422;BME280;19763;55.798;37.782;2023-01-28T07:07:28;146841.94;;;-1.97;78.16
33422;BME280;19763;55.798;37.782;2023-01-28T07:09:54;146834.31;;;-2.00;78.84
33422;BME280;19763;55.798;37.782;2023-01-28T07:12:19;146893.97;;;-1.76;78.19
33422;BME280;19763;55.798;37.782;2023-01-28T07:14:45;146888.88;;;-1.78;77.86
33422;BME280;19763;55.798;37.782;2023-01-28T07:17:11;146890.16;;;-1.78;77.32
33422;BME280;19763;55.798;37.782;2023-01-28T07:19:36;146877.47;;;-1.83;76.26
33422;BME280;19763;55.798;37.782;2023-01-28T07:22:02;146821.59;;;-2.05;77.15
33422;BME280;19763;55.798;37.782;2023-01-28T07:24:28;146896.53;;;-1.75;77.94
33422;BME280;19763;55.798;37.782;2023-01-28T07:26:54;146864.78;;;-1.88;77.46
33422;BME280;19763;55.798;37.782;2023-01-28T07:29:19;146896.53;;;-1.75;77.45
33422;BME280;19763;55.798;37.782;2023-01-28T07:31:45;146893.97;;;-1.76;77.60
33422;BME280;19763;55.798;37.782;2023-01-28T07:34:11;146881.25;;;-1.81;77.44
33422;BME280;19763;55.798;37.782;2023-01-28T07:36:37;146896.53;;;-1.75;75.97
33422;BME280;19763;55.798;37.782;2023-01-28T07:39:03;146878.75;;;-1.82;76.96
33422;BME280;19763;55.798;37.782;2023-01-28T07:41:28;146897.78;;;-1.75;77.28
33422;BME280;19763;55.798;37.782;2023-01-28T07:43:54;146883.81;;;-1.80;76.64
33422;BME280;19763;55.798;37.782;2023-01-28T07:46:20;146907.94;;;-1.70;76.56
33422;BME280;19763;55.798;37.782;2023-01-28T07:48:46;146929.50;;;-1.62;77.92
33422;BME280;19763;55.798;37.782;2023-01-28T07:51:11;146953.63;;;-1.52;76.85
33422;BME280;19763;55.798;37.782;2023-01-28T07:53:37;146940.94;;;-1.57;75.99
33422;BME280;19763;55.798;37.782;2023-01-28T07:56:03;146940.94;;;-1.57;76.62
33422;BME280;19763;55.798;37.782;2023-01-28T07:58:30;146953.63;;;-1.52;76.35
33422;BME280;19763;55.798;37.782;2023-01-28T08:00:59;146990.44;;;-1.37;76.69
33422;BME280;19763;55.798;37.782;2023-01-28T08:03:25;146990.44;;;-1.37;75.99
33422;BME280;19763;55.798;37.782;2023-01-28T08:05:52;147004.41;;;-1.31;76.52
33422;BME280;19763;55.798;37.782;2023-01-28T08:08:19;147031.09;;;-1.20;76.02
33422;BME280;19763;55.798;37.782;2023-01-28T08:10:45;147051.44;;;-1.12;76.45
33422;BME280;19763;55.798;37.782;2023-01-28T08:13:12;147024.75;;;-1.23;74.73
33422;BME280;19763;55.798;37.782;2023-01-28T08:15:38;147027.28;;;-1.22;75.12
33422;BME280;19763;55.798;37.782;2023-01-28T08:18:05;147032.34;;;-1.20;75.19
33422;BME280;19763;55.798;37.782;2023-01-28T08:20:31;147034.91;;;-1.19;75.99
33422;BME280;19763;55.798;37.782;2023-01-28T08:23:14;147018.38;;;-1.26;75.30
33422;BME280;19763;55.798;37.782;2023-01-28T08:25:40;147052.69;;;-1.12;76.09
33422;BME280;19763;55.798;37.782;2023-01-28T08:28:06;147061.59;;;-1.08;75.00
33422;BME280;19763;55.798;37.782;2023-01-28T08:30:32;147059.03;;;-1.09;74.48
33422;BME280;19763;55.798;37.782;2023-01-28T08:32:58;147092.06;;;-0.96;76.02
33422;BME280;19763;55.798;37.782;2023-01-28T08:35:25;147093.34;;;-0.95;74.63
33422;BME280;19763;55.798;37.782;2023-01-28T08:37:51;147113.63;;;-0.87;75.61
33422;BME280;19763;55.798;37.782;2023-01-28T08:40:18;147118.75;;;-0.85;75.34
33422;BME280;19763;55.798;37.782;2023-01-28T08:42:50;147098.41;;;-0.93;74.96
33422;BME280;19763;55.798;37.782;2023-01-28T08:45:17;147076.81;;;-1.02;75.19
33422;BME280;19763;55.798;37.782;2023-01-28T08:47:51;147087.00;;;-0.98;75.33
33422;BME280;19763;55.798;37.782;2023-01-28T08:50:17;147113.63;;;-0.87;74.72
33422;BME280;19763;55.798;37.782;2023-01-28T08:52:47;147104.78;;;-0.91;74.29
33422;BME280;19763;55.798;37.782;2023-01-28T08:55:14;147116.19;;;-0.86;75.28
33422;BME280;19763;55.798;37.782;2023-01-28T08:57:40;147114.94;;;-0.87;74.58
33422;BME280;19763;55.798;37.782;2023-01-28T09:00:07;147108.56;;;-0.89;75.25
33422;BME280;19763;55.798;37.782;2023-01-28T09:02:36;147140.34;;;-0.76;75.23
33422;BME280;19763;55.798;37.782;2023-01-28T09:05:02;147137.78;;;-0.77;74.88
33422;BME280;19763;55.798;37.782;2023-01-28T09:07:28;147074.28;;;-1.03;74.21
33422;BME280;19763;55.798;37.782;2023-01-28T09:09:53;147104.78;;;-0.91;74.51
33422;BME280;19763;55.798;37.782;2023-01-28T09:12:19;147128.91;;;-0.81;74.50
33422;BME280;19763;55.798;37.782;2023-01-28T09:14:44;147078.06;;;-1.01;74.02
33422;BME280;19763;55.798;37.782;2023-01-28T09:17:10;147056.50;;;-1.10;73.79
33422;BME280;19763;55.798;37.782;2023-01-28T09:19:35;147053.94;;;-1.11;75.44
33422;BME280;19763;55.798;37.782;2023-01-28T09:22:04;147056.50;;;-1.10;75.00
33422;BME280;19763;55.798;37.782;2023-01-28T09:24:30;147083.19;;;-0.99;74.24
33422;BME280;19763;55.798;37.782;2023-01-28T09:26:55;147106.03;;;-0.90;76.52
33422;BME280;19763;55.798;37.782;2023-01-28T09:29:21;147104.78;;;-0.91;74.26
33422;BME280;19763;55.798;37.782;2023-01-28T09:31:46;147109.84;;;-0.89;74.55
33422;BME280;19763;55.798;37.782;2023-01-28T09:34:12;147140.34;;;-0.76;74.92
33422;BME280;19763;55.798;37.782;2023-01-28T09:36:37;147123.81;;;-0.83;74.34
33422;BME280;19763;55.798;37.782;2023-01-28T09:39:03;147089.53;;;-0.97;74.65
33422;BME280;19763;55.798;37.782;2023-01-28T09:47:15;147088.25;;;-0.97;74.53
33422;BME280;19763;55.798;37.782;2023-01-28T09:49:46;147053.94;;;-1.11;73.70
33422;BME280;19763;55.798;37.782;2023-01-28T09:52:15;147094.59;;;-0.95;73.57
33422;BME280;19763;55.798;37.782;2023-01-28T09:54:53;147107.31;;;-0.90;74.03
33422;BME280;19763;55.798;37.782;2023-01-28T09:57:40;147015.88;;;-1.27;75.10
33422;BME280;19763;55.798;37.782;2023-01-28T10:00:31;147023.50;;;-1.24;75.38
33422;BME280;19763;55.798;37.782;2023-01-28T10:10:36;147090.78;;;-0.96;75.00
33422;BME280;19763;55.798;37.782;2023-01-28T10:13:14;147118.75;;;-0.85;75.67
33422;BME280;19763;55.798;37.782;2023-01-28T10:21:17;147056.50;;;-1.10;76.00
33422;BME280;19763;55.798;37.782;2023-01-28T10:24:00;146972.66;;;-1.44;75.28
33422;BME280;19763;55.798;37.782;2023-01-28T10:26:36;147023.50;;;-1.24;75.81
33422;BME280;19763;55.798;37.782;2023-01-28T10:29:19;147047.63;;;-1.14;75.24
33422;BME280;19763;55.798;37.782;2023-01-28T10:31:54;147050.13;;;-1.13;74.78
33422;BME280;19763;55.798;37.782;2023-01-28T10:34:21;147118.75;;;-0.85;75.59
33422;BME280;19763;55.798;37.782;2023-01-28T10:36:48;147151.75;;;-0.72;75.31
33422;BME280;19763;55.798;37.782;2023-01-28T10:39:20;147169.56;;;-0.64;74.61
33422;BME280;19763;55.798;37.782;2023-01-28T10:41:47;147099.66;;;-0.93;73.72
33422;BME280;19763;55.798;37.782;2023-01-28T10:44:17;147028.56;;;-1.22;74.81
33422;BME280;19763;55.798;37.782;2023-01-28T10:46:47;147056.50;;;-1.10;75.13
33422;BME280;19763;55.798;37.782;2023-01-28T10:49:18;147088.25;;;-0.97;74.84
33422;BME280;19763;55.798;37.782;2023-01-28T10:51:47;147127.63;;;-0.81;75.30
33422;BME280;19763;55.798;37.782;2023-01-28T10:56:43;147125.09;;;-0.82;74.79
33422;BME280;19763;55.798;37.782;2023-01-28T10:59:26;147135.28;;;-0.78;74.05
33422;BME280;19763;55.798;37.782;2023-01-28T11:01:55;147145.41;;;-0.74;74.06
33422;BME280;19763;55.798;37.782;2023-01-28T11:04:27;147164.50;;;-0.66;74.42
33422;BME280;19763;55.798;37.782;2023-01-28T11:07:00;147175.91;;;-0.62;74.20
33422;BME280;19763;55.798;37.782;2023-01-28T11:09:34;147183.53;;;-0.59;73.95
33422;BME280;19763;55.798;37.782;2023-01-28T11:12:33;147174.66;;;-0.62;73.86
33422;BME280;19763;55.798;37.782;2023-01-28T11:15:00;147142.91;;;-0.75;74.28
33422;BME280;19763;55.798;37.782;2023-01-28T11:17:31;147165.75;;;-0.66;74.13
33422;BME280;19763;55.798;37.782;2023-01-28T11:20:00;147173.34;;;-0.63;74.22
33422;BME280;19763;55.798;37.782;2023-01-28T11:22:42;147092.06;;;-0.96;75.04
33422;BME280;19763;55.798;37.782;2023-01-28T11:25:26;147000.59;;;-1.33;75.59
33422;BME280;19763;55.798;37.782;2023-01-28T11:27:53;147028.56;;;-1.22;76.11
33422;BME280;19763;55.798;37.782;2023-01-28T11:30:33;147038.72;;;-1.17;75.89
33422;BME280;19763;55.798;37.782;2023-01-28T11:33:21;147090.78;;;-0.96;76.68
33422;BME280;19763;55.798;37.782;2023-01-28T11:38:29;147116.19;;;-0.86;77.12
33422;BME280;19763;55.798;37.782;2023-01-28T11:40:57;147118.75;;;-0.85;75.97
33422;BME280;19763;55.798;37.782;2023-01-28T11:43:25;147165.75;;;-0.66;76.06
33422;BME280;19763;55.798;37.782;2023-01-28T11:57:25;147071.75;;;-1.04;76.44
33422;BME280;19763;55.798;37.782;2023-01-28T12:00:18;147015.88;;;-1.27;77.11
33422;BME280;19763;55.798;37.782;2023-01-28T12:06:39;146989.19;;;-1.37;77.60
33422;BME280;19763;55.798;37.782;2023-01-28T12:42:22;147097.16;;;-0.94;76.68
33422;BME280;19763;55.798;37.782;2023-01-28T12:44:59;147104.78;;;-0.91;77.25
33422;BME280;19763;55.798;37.782;2023-01-28T12:47:34;147067.91;;;-1.06;76.41
33422;BME280;19763;55.798;37.782;2023-01-28T12:50:19;147106.03;;;-0.90;77.51
33422;BME280;19763;55.798;37.782;2023-01-28T12:52:52;147084.44;;;-0.99;77.84
33422;BME280;19763;55.798;37.782;2023-01-28T12:55:36;147013.31;;;-1.28;77.28
33422;BME280;19763;55.798;37.782;2023-01-28T12:58:04;147006.97;;;-1.30;77.06
33422;BME280;19763;55.798;37.782;2023-01-28T13:00:32;147065.41;;;-1.07;77.92
33422;BME280;19763;55.798;37.782;2023-01-28T13:03:18;147051.44;;;-1.12;78.08
33422;BME280;19763;55.798;37.782;2023-01-28T13:05:51;147081.88;;;-1.00;77.42
33422;BME280;19763;55.798;37.782;2023-01-28T13:08:23;147029.84;;;-1.21;77.45
33422;BME280;19763;55.798;37.782;2023-01-28T13:10:50;147015.88;;;-1.27;78.54
33422;BME280;19763;55.798;37.782;2023-01-28T13:13:39;147057.78;;;-1.10;77.37
33422;BME280;19763;55.798;37.782;2023-01-28T13:16:09;147010.78;;;-1.29;77.39
33422;BME280;19763;55.798;37.782;2023-01-28T13:21:05;147051.44;;;-1.12;78.27
33422;BME280;19763;55.798;37.782;2023-01-28T13:23:39;147022.19;;;-1.24;78.58
33422;BME280;19763;55.798;37.782;2023-01-28T13:26:23;146995.53;;;-1.35;78.45
33422;BME280;19763;55.798;37.782;2023-01-28T13:28:52;146995.53;;;-1.35;78.77
33422;BME280;19763;55.798;37.782;2023-01-28T13:31:21;146958.69;;;-1.50;79.29
33422;BME280;19763;55.798;37.782;2023-01-28T13:33:48;146966.34;;;-1.47;78.94
33422;BME280;19763;55.798;37.782;2023-01-28T13:36:38;146967.59;;;-1.46;78.58
33422;BME280;19763;55.798;37.782;2023-01-28T13:39:20;146951.09;;;-1.53;79.88
33422;BME280;19763;55.798;37.782;2023-01-28T13:41:52;146944.72;;;-1.56;79.42
33422;BME280;19763;55.798;37.782;2023-01-28T13:52:28;146976.47;;;-1.43;79.61
33422;BME280;19763;55.798;37.782;2023-01-28T13:55:15;147005.72;;;-1.31;78.92
33422;BME280;19763;55.798;37.782;2023-01-28T14:17:47;146996.81;;;-1.34;78.73
33422;BME280;19763;55.798;37.782;2023-01-28T14:20:36;147015.88;;;-1.27;78.51
33422;BME280;19763;55.798;37.782;2023-01-28T14:23:05;147024.75;;;-1.23;78.77
33422;BME280;19763;55.798;37.782;2023-01-28T14:25:59;147052.69;;;-1.12;77.69
33422;BME280;19763;55.798;37.782;2023-01-28T14:31:33;147106.03;;;-0.90;78.03
33422;BME280;19763;55.798;37.782;2023-01-28T14:34:28;147059.03;;;-1.09;77.30
33422;BME280;19763;55.798;37.782;2023-01-28T14:37:07;147037.47;;;-1.18;77.16
33422;BME280;19763;55.798;37.782;2023-01-28T14:39:54;147052.69;;;-1.12;77.47
33422;BME280;19763;55.798;37.782;2023-01-28T14:42:30;147003.16;;;-1.32;77.59
33422;BME280;19763;55.798;37.782;2023-01-28T14:45:24;147014.56;;;-1.27;79.11
33422;BME280;19763;55.798;37.782;2023-01-28T14:48:00;147017.13;;;-1.26;78.93
33422;BME280;19763;55.798;37.782;2023-01-28T14:58:29;147012.06;;;-1.28;78.27
33422;BME280;19763;55.798;37.782;2023-01-28T15:00:58;147051.44;;;-1.12;77.74
33422;BME280;19763;55.798;37.782;2023-01-28T15:03:26;147051.44;;;-1.12;77.76